Time;durP1;ratioP1;P1;durP2;ratioP2;P2;SDS_P1;SDS_P2;PMS_P1;PMS_P2;Temp;Humidity;BMP_temperature;BMP_pressure;BME280_temperature;BME280_humidity;BME280_pressure;Samples;Min_cycle;Max_cycle;Signal;HPM_P1;HPM_P2
2022/03/04 00:05:56;;;;;;;1999.90;999.90;;;;;;;3.25;75.22;101770.88;15494046;28;20431;-63
2022/03/04 00:13:28;;;;;;;1999.90;999.90;;;;;;;3.19;74.65;101784.59;15508541;28;20109;-63
2022/03/04 00:21:02;;;;;;;1999.90;999.90;;;;;;;3.29;74.37;101783.88;15491838;28;20050;-62
2022/03/04 00:28:34;;;;;;;1999.90;999.90;;;;;;;3.54;73.23;101777.78;15490956;28;20125;-63
2022/03/04 00:36:07;;;;;;;1999.90;999.90;;;;;;;3.32;73.47;101788.88;15475626;28;20116;-62
2022/03/04 00:43:39;;;;;;;1999.90;999.90;;;;;;;3.30;73.45;101787.47;15489560;28;20038;-60
2022/03/04 00:51:15;;;;;;;1999.90;999.90;;;;;;;3.15;73.54;101785.38;15488115;28;20427;-60
2022/03/04 00:58:48;;;;;;;1999.90;999.90;;;;;;;2.93;74.25;101790.91;15482259;28;20535;-60
2022/03/04 01:06:22;;;;;;;1999.90;999.90;;;;;;;3.18;72.82;101795.88;15489280;28;20047;-59
2022/03/04 01:13:54;;;;;;;1999.90;999.90;;;;;;;2.79;74.44;101803.38;15490901;28;20046;-60
2022/03/04 01:21:27;;;;;;;1999.90;999.90;;;;;;;2.98;74.58;101793.69;15498325;28;20057;-57
2022/03/04 01:28:59;;;;;;;;;;;;;;;2.84;74.66;101798.78;15503146;28;20057;-60
2022/03/04 01:36:35;;;;;;;1999.90;999.90;;;;;;;3.02;73.54;101800.41;15501914;28;20421;-62
2022/03/04 01:44:07;;;;;;;1999.90;999.90;;;;;;;2.82;74.34;101811.97;15490440;28;20357;-61
2022/03/04 01:51:40;;;;;;;1999.90;999.90;;;;;;;2.97;73.63;101808.59;15492619;28;20054;-60
2022/03/04 01:59:12;;;;;;;1999.90;999.90;;;;;;;2.91;74.26;101809.59;15487771;28;20061;-59
2022/03/04 02:06:46;;;;;;;1999.90;999.90;;;;;;;2.75;74.46;101804.97;15484131;28;20076;-62
2022/03/04 02:14:20;;;;;;;1999.90;999.90;;;;;;;3.12;72.95;101797.72;15486492;28;20508;-60
2022/03/04 02:21:55;;;;;;;1999.90;999.90;;;;;;;3.13;73.13;101791.16;15487661;28;20475;-61
2022/03/04 02:29:29;;;;;;;1999.90;999.90;;;;;;;2.91;73.86;101798.56;15486286;28;20077;-61
2022/03/04 02:37:03;;;;;;;1999.90;999.90;;;;;;;2.94;73.38;101800.00;15483443;28;20600;-59
2022/03/04 02:44:35;;;;;;;1999.90;999.90;;;;;;;2.93;73.75;101810.19;15484217;28;20038;-61
2022/03/04 02:52:09;;;;;;;1999.90;999.90;;;;;;;2.70;74.28;101810.41;15478655;28;20492;-61
2022/03/04 02:59:42;;;;;;;1999.90;999.90;;;;;;;2.95;73.49;101819.03;15483778;28;20554;-61
2022/03/04 03:07:16;;;;;;;1999.90;999.90;;;;;;;3.50;71.96;101822.72;15488038;28;20331;-60
2022/03/04 03:14:48;;;;;;;1999.90;999.90;;;;;;;3.81;70.53;101818.38;15497782;28;20133;-61
2022/03/04 03:22:21;;;;;;;1999.90;999.90;;;;;;;3.90;69.70;101816.81;15480678;28;20054;-60
2022/03/04 03:29:53;;;;;;;1999.90;999.90;;;;;;;3.90;69.69;101817.63;15494456;28;20062;-59
2022/03/04 03:37:30;;;;;;;1999.90;999.90;;;;;;;3.79;70.81;101826.09;15496162;28;20141;-61
2022/03/04 03:45:02;;;;;;;1999.90;999.90;;;;;;;3.99;70.19;101812.47;15497169;28;20050;-61
2022/03/04 03:52:36;;;;;;;1999.90;999.90;;;;;;;4.19;69.04;101822.88;15510329;28;20042;-61
2022/03/04 04:00:10;;;;;;;1999.90;999.90;;;;;;;4.27;68.67;101809.41;15494333;28;20042;-62
2022/03/04 04:07:46;;;;;;;1999.90;999.90;;;;;;;4.27;68.89;101812.16;15492698;28;20104;-60
2022/03/04 04:15:18;;;;;;;1999.90;999.90;;;;;;;4.29;68.29;101814.66;15492329;28;20077;-61
2022/03/04 04:22:52;;;;;;;1999.90;999.90;;;;;;;4.31;69.06;101823.53;15492208;28;20050;-62
2022/03/04 04:30:24;;;;;;;1999.90;999.90;;;;;;;4.23;68.35;101822.06;15493548;28;20490;-63
2022/03/04 04:37:58;;;;;;;1999.90;999.90;;;;;;;4.22;68.56;101816.81;15490243;28;20066;-62
2022/03/04 04:45:30;;;;;;;;;;;;;;;4.31;68.22;101812.47;15491692;28;20096;-62
2022/03/04 04:53:03;;;;;;;1999.90;999.90;;;;;;;4.19;69.07;101823.72;15491434;28;19962;-59
2022/03/04 05:00:35;;;;;;;1999.90;999.90;;;;;;;3.99;69.43;101816.06;15491520;28;20058;-61
2022/03/04 05:08:09;;;;;;;1999.90;999.90;;;;;;;3.77;70.44;101812.53;15487823;28;20286;-62
2022/03/04 05:15:42;;;;;;;1999.90;999.90;;;;;;;3.70;70.29;101821.03;15481368;28;20050;-61
2022/03/04 05:23:58;;;;;;;1999.90;999.90;;;;;;;3.62;70.57;101815.97;15489501;28;20054;-61
2022/03/04 05:31:07;;;;;;;1999.90;999.90;;;;;;;3.57;69.95;101815.94;15489228;28;20734;-63
2022/03/04 05:38:41;;;;;;;1999.90;999.90;;;;;;;3.69;69.86;101832.34;15493785;28;20557;-62
2022/03/04 05:46:14;;;;;;;1999.90;999.90;;;;;;;3.75;69.99;101845.09;15490398;28;20311;-61
2022/03/04 05:53:49;;;;;;;1999.90;999.90;;;;;;;3.83;70.09;101841.84;15487875;28;20053;-61
2022/03/04 06:01:21;;;;;;;1999.90;999.90;;;;;;;3.72;70.47;101842.84;15486428;28;20053;-61
2022/03/04 06:08:55;;;;;;;1999.90;999.90;;;;;;;3.80;69.25;101861.72;15486371;28;20046;-60
2022/03/04 06:16:27;;;;;;;1999.90;999.90;;;;;;;3.73;69.55;101858.31;15487659;28;20050;-62
2022/03/04 06:24:01;;;;;;;1999.90;999.90;;;;;;;3.74;69.72;101866.34;15487576;28;20038;-62
2022/03/04 06:31:33;;;;;;;1999.90;999.90;;;;;;;3.73;69.97;101869.38;15485850;28;20309;-63
2022/03/04 06:39:07;;;;;;;1999.90;999.90;;;;;;;3.95;69.76;101872.06;15485390;28;20053;-59
2022/03/04 06:46:39;;;;;;;1999.90;999.90;;;;;;;4.09;69.06;101883.56;15488424;28;20043;-62
2022/03/04 06:54:12;;;;;;;1999.90;999.90;;;;;;;4.31;69.37;101879.63;15500170;28;20061;-63
2022/03/04 07:01:44;;;;;;;1999.90;999.90;;;;;;;4.16;70.03;101875.88;15470119;28;20142;-62
2022/03/04 07:09:18;;;;;;;1999.90;999.90;;;;;;;4.36;70.28;101895.41;15485793;28;20053;-64
2022/03/04 07:16:51;;;;;;;1999.90;999.90;;;;;;;4.56;68.97;101892.81;15487761;28;20137;-62
2022/03/04 07:24:24;;;;;;;1999.90;999.90;;;;;;;4.65;69.18;101890.41;15485083;28;20108;-62
2022/03/04 07:31:56;;;;;;;1999.90;999.90;;;;;;;4.76;69.47;101896.84;15470210;28;20136;-62
2022/03/04 07:39:30;;;;;;;1999.90;999.90;;;;;;;4.53;70.79;101912.69;15484414;28;20050;-62
2022/03/04 07:47:02;;;;;;;1999.90;999.90;;;;;;;4.57;71.35;101901.94;15498667;28;20069;-63
2022/03/04 07:54:39;;;;;;;1999.90;999.90;;;;;;;4.64;71.11;101908.91;15504701;28;20050;-62
2022/03/04 08:02:11;;;;;;;1999.90;999.90;;;;;;;5.03;69.77;101913.34;15483063;28;20046;-63
2022/03/04 08:09:44;;;;;;;1999.90;999.90;;;;;;;5.04;70.58;101929.69;15493096;28;20049;-63
2022/03/04 08:17:16;;;;;;;;;;;;;;;5.28;69.28;101946.69;15507096;28;20125;-61
2022/03/04 08:24:51;;;;;;;1999.90;999.90;;;;;;;5.14;69.70;101943.56;15493522;28;19944;-63
2022/03/04 08:32:23;;;;;;;1999.90;999.90;;;;;;;4.57;71.14;101944.25;15484926;28;20042;-63
2022/03/04 08:39:57;;;;;;;1999.90;999.90;;;;;;;5.45;69.06;101957.59;15487900;28;20050;-62
2022/03/04 08:47:29;;;;;;;;;;;;;;;5.22;68.73;101959.69;15493665;28;20117;-62
2022/03/04 08:55:02;;;;;;;1999.90;999.90;;;;;;;5.45;67.88;101965.91;15490557;28;19960;-62
2022/03/04 09:02:34;;;;;;;;;;;;;;;5.70;67.04;101968.78;15491776;28;20134;-61
2022/03/04 09:10:09;;;;;;;1999.90;999.90;;;;;;;5.44;65.94;101967.00;15491618;28;20401;-63
2022/03/04 09:17:41;;;;;;;1999.90;999.90;;;;;;;5.63;63.38;101979.31;15487081;28;20651;-62
2022/03/04 09:25:16;;;;;;;1999.90;999.90;;;;;;;6.07;60.52;101965.09;15482009;28;20041;-63
2022/03/04 09:32:48;;;;;;;1999.90;999.90;;;;;;;5.93;60.62;101970.28;15454340;28;20047;-62
2022/03/04 09:40:21;;;;;;;1999.90;999.90;;;;;;;6.28;60.34;101966.81;15476430;28;20483;-62
2022/03/04 09:47:53;;;;;;;1999.90;999.90;;;;;;;6.05;57.46;101964.53;15483103;28;20113;-62
2022/03/04 09:55:27;;;;;;;1999.90;999.90;;;;;;;5.59;57.88;101963.47;15482468;28;20045;-62
2022/03/04 10:03:00;;;;;;;1999.90;999.90;;;;;;;5.37;58.45;101971.94;15484225;28;20054;-63
2022/03/04 10:10:35;;;;;;;1999.90;999.90;;;;;;;5.64;57.02;101964.34;15487029;28;20511;-63
2022/03/04 10:18:07;;;;;;;1999.90;999.90;;;;;;;5.50;56.72;101969.53;15471386;28;20500;-63
2022/03/04 10:25:43;;;;;;;1999.90;999.90;;;;;;;5.71;57.37;101959.38;15468143;28;20049;-61
2022/03/04 10:33:17;;;;;;;1999.90;999.90;;;;;;;5.77;55.59;101971.31;15486407;28;20263;-62
2022/03/04 10:40:51;;;;;;;;;;;;;;;6.16;54.89;101971.78;15503049;28;20046;-61
2022/03/04 10:48:23;;;;;;;;;;;;;;;5.98;53.60;101972.28;15497867;28;19944;-62
2022/03/04 10:55:57;;;;;;;1999.90;999.90;;;;;;;5.95;54.02;101967.28;15488386;28;20288;-61
2022/03/04 11:03:30;;;;;;;1999.90;999.90;;;;;;;6.22;55.31;101972.59;15484788;28;20050;-63
2022/03/04 11:11:05;;;;;;;1999.90;999.90;;;;;;;5.80;55.50;101974.38;15485192;28;20046;-63
2022/03/04 11:18:40;;;;;;;1999.90;999.90;;;;;;;5.73;56.04;101968.28;15483712;28;20042;-61
2022/03/04 11:26:21;;;;;;;1999.90;999.90;;;;;;;5.76;56.37;101973.25;15471217;28;20042;-62
2022/03/04 11:33:55;;;;;;;1999.90;999.90;;;;;;;6.02;54.15;101971.44;15467047;28;20069;-64
2022/03/04 11:41:48;;;;;;;1999.90;999.90;;;;;;;6.58;54.04;101971.59;15510394;28;20112;-62
2022/03/04 11:49:34;;;;;;;1999.90;999.90;;;;;;;7.19;50.70;101970.72;15482971;28;20046;-65
2022/03/04 11:57:17;;;;;;;1999.90;999.90;;;;;;;6.30;51.76;101980.41;15477380;28;20080;-64
2022/03/04 12:05:30;;;;;;;1999.90;999.90;;;;;;;6.80;51.63;101970.47;15482215;28;20042;-62
2022/03/04 12:13:07;;;;;;;1999.90;999.90;;;;;;;6.45;51.65;101963.78;15459323;28;20078;-64
2022/03/04 12:21:10;;;;;;;1999.90;999.90;;;;;;;7.00;49.41;101970.47;15493666;28;20054;-60
2022/03/04 12:28:46;;;;;;;1999.90;999.90;;;;;;;7.20;50.46;101958.53;15460873;28;20042;-61
2022/03/04 12:36:19;;;;;;;1999.90;999.90;;;;;;;7.17;50.17;101961.84;15494775;28;20092;-64
2022/03/04 12:43:55;;;;;;;1999.90;999.90;;;;;;;6.83;49.89;101956.03;15495960;28;20051;-59
2022/03/04 12:51:29;;;;;;;1999.90;999.90;;;;;;;6.66;50.40;101956.31;15479692;28;20248;-62
2022/03/04 12:59:05;;;;;;;1999.90;999.90;;;;;;;7.33;50.43;101948.78;15487797;28;20046;-59
2022/03/04 13:06:38;;;;;;;1999.90;999.90;;;;;;;7.27;49.52;101950.72;15494930;28;20061;-62
2022/03/04 13:14:14;;;;;;;1999.90;999.90;;;;;;;7.16;49.61;101941.56;15491941;28;20070;-61
2022/03/04 13:21:48;;;;;;;1999.90;999.90;;;;;;;7.83;47.37;101947.78;15488946;28;20051;-65
2022/03/04 13:29:23;;;;;;;1999.90;999.90;;;;;;;7.13;49.80;101952.41;15483767;28;20416;-64
2022/03/04 13:36:58;;;;;;;1999.90;999.90;;;;;;;7.67;48.14;101957.28;15502808;28;20512;-64
2022/03/04 13:44:32;;;;;;;1999.90;999.90;;;;;;;7.38;49.19;101952.34;15467224;28;20070;-64
2022/03/04 13:52:05;;;;;;;;;;;;;;;7.16;49.68;101949.06;15487659;28;20496;-62
2022/03/04 13:59:49;;;;;;;1999.90;999.90;;;;;;;7.34;48.65;101951.25;15474001;28;19921;-65
2022/03/04 14:07:21;;;;;;;1999.90;999.90;;;;;;;7.07;50.60;101942.41;15483861;28;20116;-62
2022/03/04 14:14:55;;;;;;;1999.90;999.90;;;;;;;7.29;51.15;101942.09;15483052;28;20066;-62
2022/03/04 14:22:27;;;;;;;1999.90;999.90;;;;;;;7.15;49.52;101945.47;15485141;28;20093;-62
2022/03/04 14:30:00;;;;;;;1999.90;999.90;;;;;;;7.09;48.68;101943.00;15484306;28;20558;-62
2022/03/04 14:37:32;;;;;;;1999.90;999.90;;;;;;;6.81;48.59;101942.44;15484468;28;20042;-62
2022/03/04 14:45:07;;;;;;;1999.90;999.90;;;;;;;7.13;50.04;101939.38;15449434;28;1013058;-60
2022/03/04 14:52:40;;;;;;;1999.90;999.90;;;;;;;7.17;48.98;101943.22;15485956;28;20042;-64
2022/03/04 15:00:17;;;;;;;1999.90;999.90;;;;;;;7.17;48.49;101939.63;15485876;28;20109;-61
2022/03/04 15:07:55;;;;;;;1999.90;999.90;;;;;;;6.49;49.76;101937.19;15485451;28;20045;-64
2022/03/04 15:15:28;;;;;;;1999.90;999.90;;;;;;;6.67;50.28;101949.69;15482353;28;20056;-59
2022/03/04 15:23:02;;;;;;;1999.90;999.90;;;;;;;6.56;49.24;101946.03;15480440;28;20043;-60
2022/03/04 15:30:38;;;;;;;1999.90;999.90;;;;;;;6.64;49.23;101952.97;15486530;28;20635;-61
2022/03/04 15:38:11;;;;;;;1999.90;999.90;;;;;;;6.56;49.14;101945.22;15483430;28;20106;-62
2022/03/04 15:45:45;;;;;;;1999.90;999.90;;;;;;;6.50;49.15;101946.31;15485381;28;20066;-62
2022/03/04 15:53:17;;;;;;;1999.90;999.90;;;;;;;6.53;48.70;101940.22;15476906;28;20050;-60
2022/03/04 16:00:50;;;;;;;1999.90;999.90;;;;;;;6.29;49.24;101953.78;15484350;28;20117;-62
2022/03/04 16:08:22;;;;;;;1999.90;999.90;;;;;;;6.29;49.87;101948.25;15482711;28;20115;-60
2022/03/04 16:15:56;;;;;;;1999.90;999.90;;;;;;;6.40;50.52;101952.69;15489939;28;20046;-61
2022/03/04 16:23:28;;;;;;;1999.90;999.90;;;;;;;6.35;50.28;101953.50;15492517;28;20050;-61
2022/03/04 16:31:01;;;;;;;1999.90;999.90;;;;;;;6.35;53.76;101955.44;15492291;28;20046;-63
2022/03/04 16:38:34;;;;;;;1999.90;999.90;;;;;;;6.58;53.50;101954.09;15493428;28;20042;-61
2022/03/04 16:46:07;;;;;;;1999.90;999.90;;;;;;;6.43;55.20;101962.41;15492343;28;20148;-61
2022/03/04 16:53:41;;;;;;;1999.90;999.90;;;;;;;6.38;54.83;101971.56;15490984;28;20395;-62
2022/03/04 17:01:15;;;;;;;1999.90;999.90;;;;;;;6.60;54.87;101963.81;15490747;28;20054;-64
2022/03/04 17:08:47;;;;;;;1999.90;999.90;;;;;;;6.53;54.39;101962.41;15490639;28;20452;-61
2022/03/04 17:16:21;;;;;;;1999.90;999.90;;;;;;;5.95;57.21;101970.06;15491116;28;20507;-61
2022/03/04 17:23:54;;;;;;;1999.90;999.90;;;;;;;6.15;56.65;101966.47;15489088;28;20069;-63
2022/03/04 17:31:27;;;;;;;1999.90;999.90;;;;;;;6.51;55.71;101961.84;15493753;28;20130;-63
2022/03/04 17:39:00;;;;;;;1999.90;999.90;;;;;;;6.70;54.66;101962.16;15484549;28;20301;-63
2022/03/04 17:46:33;;;;;;;1999.90;999.90;;;;;;;6.51;54.09;101959.91;15496527;28;20080;-63
2022/03/04 17:54:06;;;;;;;1999.90;999.90;;;;;;;6.68;54.01;101970.75;15489085;28;20606;-60
2022/03/04 18:01:40;;;;;;;1999.90;999.90;;;;;;;6.64;54.49;101970.47;15489515;28;20050;-62
2022/03/04 18:09:12;;;;;;;1999.90;999.90;;;;;;;6.71;54.22;101969.38;15487549;28;20062;-60
2022/03/04 18:16:45;;;;;;;1999.90;999.90;;;;;;;6.54;55.63;101980.72;15487411;28;20050;-63
2022/03/04 18:24:17;;;;;;;1999.90;999.90;;;;;;;6.03;57.59;101989.72;15487740;28;20050;-63
2022/03/04 18:31:51;;;;;;;1999.90;999.90;;;;;;;6.30;56.29;101992.31;15470010;28;20058;-63
2022/03/04 18:47:14;;;;;;;1999.90;999.90;;;;;;;6.21;56.72;102006.97;15458514;23;20413;-61
2022/03/04 18:54:46;;;;;;;;;;;;;;;6.28;56.66;102021.44;15403341;28;20448;-56
2022/03/04 19:02:19;;;;;;;1999.90;999.90;;;;;;;6.21;57.15;102024.44;15418014;28;20563;-56
2022/03/04 19:09:51;;;;;;;1999.90;999.90;;;;;;;6.21;56.86;102029.16;15401256;28;20057;-56
2022/03/04 19:17:25;;;;;;;1999.90;999.90;;;;;;;5.97;57.61;102020.47;15414122;28;20064;-56
2022/03/04 19:24:57;;;;;;;1999.90;999.90;;;;;;;5.91;58.53;102014.06;15395920;28;20045;-56
2022/03/04 19:32:34;;;;;;;1999.90;999.90;;;;;;;5.90;58.38;102015.19;15398569;28;20530;-58
2022/03/04 19:40:08;;;;;;;1999.90;999.90;;;;;;;5.97;58.60;102012.16;15393501;28;20459;-53
2022/03/04 19:47:42;;;;;;;1999.90;999.90;;;;;;;6.05;57.93;102008.88;15419511;28;20336;-57
2022/03/04 19:55:14;;;;;;;1999.90;999.90;;;;;;;5.90;58.01;102011.53;15428753;28;20034;-59
2022/03/04 20:02:47;;;;;;;1999.90;999.90;;;;;;;5.79;58.39;102019.81;15412159;28;20389;-57
2022/03/04 20:10:19;;;;;;;1999.90;999.90;;;;;;;5.80;58.13;102015.94;15428559;28;20109;-60
2022/03/04 20:17:53;;;;;;;1999.90;999.90;;;;;;;5.63;58.54;102020.84;15428215;28;20050;-61
2022/03/04 20:25:26;;;;;;;1999.90;999.90;;;;;;;5.51;58.98;102020.19;15391970;28;20133;-59
2022/03/04 20:32:59;;;;;;;1999.90;999.90;;;;;;;5.36;59.71;102022.88;15426782;28;20054;-55
2022/03/04 20:40:32;;;;;;;1999.90;999.90;;;;;;;5.25;59.43;102019.19;15426743;28;20043;-58
2022/03/04 20:48:05;;;;;;;1999.90;999.90;;;;;;;5.06;60.35;102021.53;15425263;28;20047;-59
2022/03/04 20:55:55;;;;;;;1999.90;999.90;;;;;;;4.93;60.92;102033.91;15428025;28;20494;-62
2022/03/04 21:03:41;;;;;;;1999.90;999.90;;;;;;;4.84;61.65;102029.94;15428465;28;20859;-62
2022/03/04 21:11:13;;;;;;;1999.90;999.90;;;;;;;4.73;61.62;102032.88;15378483;28;20050;-63
2022/03/04 21:18:54;;;;;;;1999.90;999.90;;;;;;;4.40;61.65;102036.69;15426049;28;20041;-63
2022/03/04 21:26:27;;;;;;;1999.90;999.90;;;;;;;4.04;62.00;102037.09;15425444;28;20071;-57
2022/03/04 21:34:03;;;;;;;1999.90;999.90;;;;;;;3.88;62.14;102037.16;15408789;28;20387;-55
2022/03/04 21:41:35;;;;;;;1999.90;999.90;;;;;;;3.66;62.93;102037.16;15388439;28;20043;-60
2022/03/04 21:49:12;;;;;;;1999.90;999.90;;;;;;;3.57;63.29;102035.91;15406394;28;20071;-57
2022/03/04 21:56:44;;;;;;;1999.90;999.90;;;;;;;3.16;64.49;102030.59;15419640;28;20502;-59
2022/03/04 22:04:25;;;;;;;1999.90;999.90;;;;;;;3.14;65.25;102041.06;15392843;28;20047;-63
2022/03/04 22:12:00;;;;;;;1999.90;999.90;;;;;;;3.21;65.22;102029.84;15390217;28;20034;-56
2022/03/04 22:19:33;;;;;;;1999.90;999.90;;;;;;;3.17;65.79;102031.44;15403633;28;20116;-58
2022/03/04 22:27:06;;;;;;;1999.90;999.90;;;;;;;3.22;65.48;102027.91;15420694;28;20050;-61
2022/03/04 22:34:40;;;;;;;1999.90;999.90;;;;;;;3.38;65.39;102033.44;15401947;28;20057;-61
2022/03/04 22:42:12;;;;;;;;;;;;;;;3.46;65.85;102033.00;15405958;28;20210;-61
2022/03/04 22:49:45;;;;;;;1999.90;999.90;;;;;;;3.54;65.62;102030.88;15398654;28;20043;-61
2022/03/04 22:57:17;;;;;;;1999.90;999.90;;;;;;;3.15;66.47;102017.06;15404807;28;20451;-62
2022/03/04 23:12:46;;;;;;;1999.90;999.90;;;;;;;3.11;66.75;102010.38;15380477;28;20054;-62
2022/03/04 23:20:19;;;;;;;1999.90;999.90;;;;;;;3.02;67.13;102009.13;15359403;29;20604;-60
2022/03/04 23:27:52;;;;;;;1999.90;999.90;;;;;;;2.86;67.34;102010.81;15350827;29;20094;-61
2022/03/04 23:35:26;;;;;;;1999.90;999.90;;;;;;;2.84;67.06;102016.56;15370316;29;20348;-61
2022/03/04 23:42:58;;;;;;;;;;;;;;;2.91;66.84;102010.88;15410392;28;20452;-59
2022/03/04 23:50:31;;;;;;;1999.90;999.90;;;;;;;2.53;67.80;102001.41;15409840;28;19926;-59
2022/03/04 23:58:03;;;;;;;1999.90;999.90;;;;;;;2.56;66.96;102000.06;15425323;28;20042;-58
